Terminal Aerodrome Forecast
Issued by NWS Tuscon, AZ

Home | Current Version | Previous Version | Text Only | Print | Product List | Glossary On
Versions: 1 2 3 4 5 6 7 8 9 10 11 12 13 14 15 16 17
000
FTUS45 KTWC 221300 AAA
TAFDUG
TAF AMD
KDUG 221313Z 2213/2312 35006KT P6SM SCT002 OVC110
     FM221500 07006KT P6SM FEW025 BKN110
     FM221900 11006KT P6SM VCSH FEW030 SCT050 BKN100
     FM222300 16009KT P6SM SCT050 BKN100
     FM230600 03006KT P6SM BKN110=

USA.gov is the U.S. government's official web portal to all federal, state and local government web resources and services.